Time;durP1;ratioP1;P1;durP2;ratioP2;P2;SDS_P1;SDS_P2;PMS_P1;PMS_P2;Temp;Humidity;BMP_temperature;BMP_pressure;BME280_temperature;BME280_humidity;BME280_pressure;Samples;Min_cycle;Max_cycle;Signal;HPM_P1;HPM_P2
2021/09/30 00:00:41;;;;;;;26.05;11.65;;;;;;;9.84;54.33;101037.06;5031353;28;20045;-76
2021/09/30 00:03:10;;;;;;;22.70;11.55;;;;;;;9.84;54.23;101031.59;5013705;28;20095;-76
2021/09/30 00:05:38;;;;;;;27.20;11.63;;;;;;;9.88;54.16;101035.50;5031509;28;20053;-76
2021/09/30 00:08:06;;;;;;;22.15;10.38;;;;;;;9.84;54.22;101032.41;5035401;28;20072;-76
2021/09/30 00:10:36;;;;;;;21.95;9.75;;;;;;;9.78;54.32;101034.22;5050835;28;20080;-76
2021/09/30 00:13:07;;;;;;;20.35;9.55;;;;;;;9.79;54.21;101027.66;5034470;28;20450;-76
2021/09/30 02:22:12;;;;;;;10.65;4.60;;;;;;;9.41;54.16;101050.84;5031636;28;20075;-76
2021/09/30 03:00:23;;;;;;;34.63;18.60;;;;;;;9.27;55.83;101057.59;5039609;28;20049;-77
2021/09/30 03:02:54;;;;;;;31.55;16.48;;;;;;;9.21;55.75;101053.91;5029534;28;20059;-77
2021/09/30 03:05:25;;;;;;;34.60;19.50;;;;;;;9.27;55.76;101061.13;5030836;28;20152;-77
2021/09/30 03:07:54;;;;;;;32.47;17.67;;;;;;;9.23;55.66;101051.75;5031489;28;20049;-77
2021/09/30 03:10:27;;;;;;;28.00;15.43;;;;;;;9.24;56.22;101052.63;5045023;28;20036;-77
2021/09/30 03:12:55;;;;;;;27.08;14.75;;;;;;;9.25;55.67;101054.28;5032236;28;20037;-78
2021/09/30 03:23:00;;;;;;;16.38;8.88;;;;;;;9.31;55.73;101053.31;5034077;28;20053;-77
2021/09/30 03:25:27;;;;;;;18.38;8.77;;;;;;;9.28;55.91;101056.53;5051198;28;20053;-77
2021/09/30 03:27:55;;;;;;;15.38;7.85;;;;;;;9.20;55.85;101047.59;5050591;28;20052;-75
2021/09/30 03:30:22;;;;;;;17.08;7.85;;;;;;;9.20;56.44;101057.69;5012470;28;20048;-77
2021/09/30 03:32:52;;;;;;;18.23;8.00;;;;;;;9.14;56.19;101039.56;5018041;28;20556;-76
2021/09/30 03:35:28;;;;;;;17.75;7.45;;;;;;;9.21;56.53;101048.44;5027783;28;20059;-74
2021/09/30 03:37:54;;;;;;;;;;;;;;;9.21;56.42;101060.22;5037176;28;20018;-76
2021/09/30 03:40:20;;;;;;;15.70;8.15;;;;;;;9.17;56.49;101059.00;5071778;28;19951;-76
2021/09/30 03:42:49;;;;;;;18.65;8.60;;;;;;;9.14;56.57;101058.66;5056706;28;20056;-77
2021/09/30 03:45:18;;;;;;;17.30;8.52;;;;;;;9.14;56.78;101056.75;5030263;28;20182;-76
2021/09/30 03:47:57;;;;;;;20.17;8.68;;;;;;;9.12;56.77;101061.59;5030488;28;20057;-76
2021/09/30 03:50:26;;;;;;;16.40;8.77;;;;;;;9.12;57.05;101058.03;5026564;28;20052;-77
2021/09/30 04:00:38;;;;;;;18.58;8.65;;;;;;;9.02;57.14;101062.19;5029891;28;20057;-74
2021/09/30 04:03:08;;;;;;;19.98;8.65;;;;;;;8.89;57.15;101037.81;5048521;28;20057;-76
2021/09/30 04:05:41;;;;;;;16.25;8.50;;;;;;;9.12;56.75;101066.22;5049877;28;20049;-76
2021/09/30 04:08:08;;;;;;;19.13;8.65;;;;;;;9.09;56.97;101070.25;5039651;28;20064;-76
2021/09/30 04:10:35;;;;;;;21.23;8.70;;;;;;;9.14;56.91;101061.38;5029509;28;20077;-75
2021/09/30 04:13:01;;;;;;;19.65;8.05;;;;;;;9.16;56.88;101061.97;5029308;28;20064;-77
2021/09/30 04:15:28;;;;;;;21.48;8.68;;;;;;;9.05;57.00;101053.53;5030552;28;20057;-77
2021/09/30 04:17:54;;;;;;;22.70;10.00;;;;;;;9.12;57.18;101066.22;5012594;28;20041;-77
2021/09/30 04:20:20;;;;;;;23.33;8.70;;;;;;;9.15;57.19;101071.22;5029546;28;20427;-77
2021/09/30 04:22:47;;;;;;;25.90;9.50;;;;;;;9.15;57.24;101063.03;5030044;28;20054;-77
2021/09/30 04:25:15;;;;;;;28.63;9.32;;;;;;;9.20;57.17;101063.16;4997998;28;20520;-76
2021/09/30 04:27:44;;;;;;;21.58;8.95;;;;;;;9.20;57.18;101074.88;5046812;28;20466;-77
2021/09/30 04:30:13;;;;;;;21.08;8.20;;;;;;;9.19;57.41;101073.22;5051131;28;20060;-77
2021/09/30 04:32:59;;;;;;;22.58;8.20;;;;;;;9.21;57.29;101070.28;5049133;28;20052;-77
2021/09/30 04:35:27;;;;;;;16.58;8.02;;;;;;;9.12;57.19;101061.59;5014415;28;20041;-77
2021/09/30 04:37:56;;;;;;;20.85;8.05;;;;;;;9.19;57.37;101075.16;5032650;28;20139;-76
2021/09/30 04:40:26;;;;;;;17.15;7.75;;;;;;;9.14;57.29;101072.28;5029430;28;20128;-77
2021/09/30 04:42:56;;;;;;;16.67;8.43;;;;;;;9.21;57.37;101076.59;5015818;28;20152;-76
2021/09/30 04:45:21;;;;;;;17.95;8.05;;;;;;;9.21;57.31;101073.84;5045958;28;20122;-76
2021/09/30 04:47:54;;;;;;;17.58;7.90;;;;;;;9.23;57.38;101081.78;5017545;28;20057;-75
2021/09/30 04:50:26;;;;;;;17.55;8.45;;;;;;;9.24;57.65;101078.00;5012940;28;20045;-76
2021/09/30 04:53:00;;;;;;;20.42;8.60;;;;;;;9.10;57.88;101063.75;5031929;28;20044;-75
2021/09/30 04:55:30;;;;;;;14.63;7.68;;;;;;;9.17;57.85;101083.56;5012463;28;20058;-74
2021/09/30 04:57:59;;;;;;;;;;;;;;;9.19;57.88;101083.31;5048138;28;20052;-76
2021/09/30 05:00:30;;;;;;;15.50;7.95;;;;;;;9.16;57.94;101081.88;5032541;28;19925;-76
2021/09/30 05:03:28;;;;;;;19.30;7.78;;;;;;;9.07;58.11;101072.41;5024220;28;20132;-76
2021/09/30 05:05:54;;;;;;;19.45;7.57;;;;;;;9.13;57.97;101093.28;5015830;28;20077;-75
2021/09/30 05:08:20;;;;;;;15.32;7.82;;;;;;;9.14;57.89;101085.94;5047408;28;20049;-75
2021/09/30 05:10:51;;;;;;;16.00;7.45;;;;;;;9.11;57.97;101089.09;5033005;28;20057;-75
2021/09/30 05:13:23;;;;;;;15.48;7.90;;;;;;;9.09;57.92;101081.19;5034739;28;20511;-76
2021/09/30 05:15:51;;;;;;;15.80;8.20;;;;;;;9.19;57.83;101088.78;5036017;28;20409;-76
2021/09/30 05:18:50;;;;;;;18.13;8.50;;;;;;;9.26;57.38;101094.13;5030868;28;20057;-75
2021/09/30 05:21:16;;;;;;;15.02;8.43;;;;;;;9.21;57.50;101095.69;5054361;28;20140;-76
2021/09/30 05:23:43;;;;;;;14.65;8.27;;;;;;;9.22;57.25;101093.78;5016941;28;20045;-75
2021/09/30 05:26:11;;;;;;;14.50;8.20;;;;;;;9.19;57.37;101095.06;5051188;28;20057;-75
2021/09/30 05:28:37;;;;;;;16.58;8.52;;;;;;;9.16;57.24;101089.25;5033770;28;20045;-75
2021/09/30 05:31:06;;;;;;;13.98;7.43;;;;;;;9.22;57.12;101093.78;5033749;28;20095;-75
2021/09/30 05:34:04;;;;;;;14.95;8.13;;;;;;;9.23;57.12;101089.97;5025817;28;20112;-76
2021/09/30 05:36:30;;;;;;;16.48;8.80;;;;;;;9.23;57.02;101089.97;5030928;28;20088;-76
2021/09/30 05:38:57;;;;;;;17.90;8.32;;;;;;;9.24;57.03;101094.38;5049214;28;20045;-76
2021/09/30 05:41:25;;;;;;;15.15;8.65;;;;;;;9.23;57.12;101087.25;5035472;28;20056;-75
2021/09/30 05:43:58;;;;;;;23.15;9.95;;;;;;;9.08;57.21;101069.41;5036081;28;20049;-77
2021/09/30 05:46:35;;;;;;;17.00;9.85;;;;;;;9.18;57.34;101087.13;5028846;28;20133;-76
2021/09/30 05:49:04;;;;;;;18.35;9.93;;;;;;;9.14;57.44;101092.22;5017073;28;20045;-77
2021/09/30 05:51:30;;;;;;;18.85;10.25;;;;;;;9.17;57.50;101097.19;5027384;28;20045;-75
2021/09/30 05:54:17;;;;;;;18.40;10.45;;;;;;;9.14;57.60;101085.94;5053420;28;20056;-76
2021/09/30 05:56:52;;;;;;;16.30;9.77;;;;;;;9.24;57.51;101099.00;5033041;28;20056;-76
2021/09/30 05:59:21;;;;;;;25.42;10.02;;;;;;;9.20;57.39;101083.06;5045793;28;20300;-75
2021/09/30 06:12:40;;;;;;;15.98;7.85;;;;;;;9.21;56.92;101087.50;5046001;28;20592;-77
2021/09/30 06:15:14;;;;;;;14.98;8.15;;;;;;;9.24;56.87;101090.81;5054533;28;20053;-77
2021/09/30 06:17:44;;;;;;;20.10;7.90;;;;;;;9.26;56.72;101084.03;5034331;28;20049;-76
2021/09/30 06:20:14;;;;;;;21.25;6.85;;;;;;;9.30;56.28;101095.31;5033255;28;20127;-76
2021/09/30 06:22:40;;;;;;;15.75;6.10;;;;;;;9.31;56.10;101092.38;5016791;28;20073;-75
2021/09/30 06:25:08;;;;;;;14.60;6.05;;;;;;;9.14;56.26;101084.03;5048893;28;20111;-76
2021/09/30 06:27:38;;;;;;;14.63;6.35;;;;;;;9.25;55.87;101098.75;5001710;28;20602;-77
2021/09/30 06:30:06;;;;;;;17.88;4.70;;;;;;;9.21;55.68;101101.16;5029805;28;20045;-74
2021/09/30 06:32:37;;;;;;;12.18;5.10;;;;;;;9.16;55.71;101081.88;5033802;28;20118;-75
2021/09/30 06:35:22;;;;;;;16.38;5.25;;;;;;;9.18;55.79;101093.41;5036622;28;20440;-75
2021/09/30 06:37:52;;;;;;;14.05;5.10;;;;;;;9.18;55.56;101093.41;5035831;28;20054;-75
2021/09/30 06:40:19;;;;;;;12.98;5.18;;;;;;;9.22;55.49;101091.03;5033567;28;20037;-76
2021/09/30 06:42:48;;;;;;;12.35;4.80;;;;;;;9.27;55.35;101099.34;5012110;28;20414;-77
2021/09/30 06:45:15;;;;;;;12.60;5.00;;;;;;;9.29;55.25;101093.66;5035744;28;20144;-76
2021/09/30 06:48:02;;;;;;;14.45;5.45;;;;;;;9.29;55.43;101090.94;5051624;28;20041;-76
2021/09/30 06:50:32;;;;;;;12.80;5.18;;;;;;;9.38;55.06;101091.44;5046737;28;20126;-76
2021/09/30 06:53:27;;;;;;;12.85;5.70;;;;;;;9.25;55.21;101089.75;5027264;28;20049;-76
2021/09/30 06:56:01;;;;;;;15.77;5.72;;;;;;;9.28;55.25;101098.28;5029189;28;20045;-77
2021/09/30 06:58:47;;;;;;;15.25;5.28;;;;;;;9.35;55.03;101092.72;5048067;28;20041;-78
2021/09/30 07:01:21;;;;;;;11.88;5.25;;;;;;;9.38;55.11;101095.00;5036971;28;20041;-77
2021/09/30 07:04:19;;;;;;;12.95;5.80;;;;;;;9.41;54.96;101094.53;4994486;28;20045;-76
2021/09/30 07:07:16;;;;;;;31.70;5.90;;;;;;;9.40;55.07;101084.69;5025468;28;20083;-76
2021/09/30 07:09:42;;;;;;;19.65;6.55;;;;;;;9.39;54.97;101093.94;5013913;28;20049;-76
2021/09/30 07:12:08;;;;;;;17.45;5.85;;;;;;;9.38;54.88;101094.16;5032240;28;20041;-76
2021/09/30 07:14:35;;;;;;;16.05;5.60;;;;;;;9.45;54.80;101098.44;5051090;28;20536;-76
2021/09/30 07:17:01;;;;;;;16.17;5.68;;;;;;;9.51;54.36;101088.47;5034699;28;20241;-75
2021/09/30 07:19:27;;;;;;;13.40;5.63;;;;;;;9.54;54.46;101090.72;5051304;28;20481;-76
2021/09/30 07:21:53;;;;;;;12.32;5.30;;;;;;;9.59;54.49;101095.50;5033297;28;20072;-75
2021/09/30 07:24:19;;;;;;;12.00;5.90;;;;;;;9.46;54.63;101081.00;5051056;28;20068;-75
2021/09/30 07:26:45;;;;;;;11.48;5.78;;;;;;;9.49;54.87;101091.44;5051903;28;20186;-75
2021/09/30 07:29:12;;;;;;;13.05;5.43;;;;;;;9.53;54.58;101089.06;5050925;28;20496;-76
2021/09/30 07:31:39;;;;;;;14.88;5.13;;;;;;;9.57;54.55;101095.72;5046491;28;20056;-76
2021/09/30 07:34:11;;;;;;;22.10;10.15;;;;;;;9.50;54.75;101092.28;5049888;28;20049;-76
2021/09/30 07:36:39;;;;;;;23.10;10.43;;;;;;;9.49;54.79;101096.06;5031271;28;20463;-75
2021/09/30 07:39:06;;;;;;;30.17;12.75;;;;;;;9.41;54.73;101085.50;5042141;28;20037;-77
2021/09/30 07:41:32;;;;;;;21.58;10.32;;;;;;;9.43;54.86;101094.28;5047230;28;20059;-77
2021/09/30 07:43:57;;;;;;;17.52;7.68;;;;;;;9.48;54.83;101097.16;5031414;28;20049;-77
2021/09/30 07:46:23;;;;;;;16.85;7.15;;;;;;;9.55;54.56;101095.13;5049358;28;20053;-77
2021/09/30 07:48:54;;;;;;;12.10;5.57;;;;;;;9.58;54.47;101093.81;5036763;28;20052;-76
2021/09/30 07:51:23;;;;;;;13.88;5.53;;;;;;;9.60;54.34;101094.41;5032873;28;20394;-77
2021/09/30 07:53:52;;;;;;;12.23;5.25;;;;;;;9.60;54.35;101089.81;5047708;28;20412;-77
2021/09/30 07:56:18;;;;;;;14.68;5.60;;;;;;;9.59;54.40;101085.38;5029366;28;20406;-76
2021/09/30 07:58:47;;;;;;;11.98;5.13;;;;;;;9.60;54.33;101087.06;5030605;28;20049;-76
2021/09/30 08:01:13;;;;;;;12.05;4.88;;;;;;;9.64;54.05;101096.44;5038038;28;20049;-76
2021/09/30 08:03:39;;;;;;;14.10;5.30;;;;;;;9.66;54.34;101093.47;5049149;28;20506;-77
2021/09/30 08:06:09;;;;;;;12.48;5.28;;;;;;;9.67;54.18;101088.84;5051707;28;20044;-77
2021/09/30 08:08:35;;;;;;;15.27;5.55;;;;;;;9.64;54.24;101099.19;5043910;28;20069;-77
2021/09/30 08:11:01;;;;;;;17.17;5.30;;;;;;;9.63;54.31;101094.78;5030861;28;20592;-77
2021/09/30 08:13:27;;;;;;;12.63;5.50;;;;;;;9.69;54.23;101095.75;5043538;28;20068;-77
2021/09/30 08:15:56;;;;;;;16.85;5.75;;;;;;;9.72;54.11;101095.25;5046155;28;20056;-77
2021/09/30 08:18:22;;;;;;;12.25;5.75;;;;;;;9.70;54.26;101088.34;5031381;28;20045;-77
2021/09/30 08:20:48;;;;;;;16.77;6.03;;;;;;;9.63;54.23;101080.28;5029567;28;20516;-77
2021/09/30 08:23:16;;;;;;;14.55;5.22;;;;;;;9.69;54.38;101084.81;5030989;28;20466;-77
2021/09/30 08:25:42;;;;;;;;;;;;;;;9.72;54.43;101097.16;5043371;28;20072;-76
2021/09/30 08:28:12;;;;;;;12.27;5.03;;;;;;;9.63;54.24;101081.13;5035189;28;20308;-77
2021/09/30 08:30:41;;;;;;;16.52;4.93;;;;;;;9.71;54.47;101095.47;5040373;28;20422;-76
2021/09/30 08:33:11;;;;;;;10.82;4.95;;;;;;;9.70;54.31;101088.34;5045598;28;20548;-75
2021/09/30 08:35:38;;;;;;;12.82;4.75;;;;;;;9.75;54.28;101091.19;5018938;28;20102;-76
2021/09/30 08:38:07;;;;;;;12.67;4.77;;;;;;;9.68;54.09;101077.69;5017211;28;20046;-76
2021/09/30 08:40:34;;;;;;;11.52;4.53;;;;;;;9.77;54.14;101092.63;5035681;28;20144;-76
2021/09/30 08:43:01;;;;;;;13.77;6.55;;;;;;;9.77;54.20;101094.56;5049302;28;20053;-76
2021/09/30 08:45:27;;;;;;;18.00;6.18;;;;;;;9.77;54.34;101095.38;5044992;28;20574;-75
2021/09/30 08:47:57;;;;;;;16.42;6.15;;;;;;;9.84;54.30;101097.16;5055542;28;20413;-75
2021/09/30 08:50:26;;;;;;;12.68;6.65;;;;;;;9.82;54.46;101091.09;5054609;28;20087;-77
2021/09/30 08:52:53;;;;;;;17.35;6.70;;;;;;;9.79;54.41;101078.75;5049549;28;20041;-77
2021/09/30 08:55:21;;;;;;;14.40;6.40;;;;;;;9.72;54.52;101080.75;5054926;28;20052;-77
2021/09/30 08:57:52;;;;;;;15.48;6.15;;;;;;;9.62;54.64;101071.28;5050363;28;20052;-77
2021/09/30 09:00:20;;;;;;;15.23;6.07;;;;;;;9.67;54.42;101077.91;5050486;28;20045;-77
2021/09/30 09:02:51;;;;;;;12.25;6.07;;;;;;;9.76;54.18;101088.25;5053773;28;20099;-78
2021/09/30 09:05:19;;;;;;;13.27;5.60;;;;;;;9.84;54.01;101092.50;5053370;28;20060;-76
2021/09/30 09:07:53;;;;;;;15.63;6.00;;;;;;;9.80;54.16;101080.41;5020165;28;20078;-78
2021/09/30 09:10:21;;;;;;;17.00;6.18;;;;;;;9.78;54.01;101088.84;5031378;28;20378;-76
2021/09/30 09:13:02;;;;;;;21.25;6.20;;;;;;;9.75;54.25;101089.31;5039455;28;20125;-76
2021/09/30 09:15:39;;;;;;;17.75;5.80;;;;;;;9.78;54.34;101096.22;5054019;28;20044;-77
2021/09/30 09:18:18;;;;;;;16.88;5.90;;;;;;;9.66;54.36;101082.53;5049393;28;20046;-77
2021/09/30 09:20:46;;;;;;;21.02;6.82;;;;;;;9.83;54.46;101099.06;5033373;28;20311;-75
2021/09/30 09:23:12;;;;;;;21.38;7.10;;;;;;;9.85;54.38;101099.63;5041622;28;20060;-76
2021/09/30 09:25:39;;;;;;;17.52;7.07;;;;;;;9.83;54.35;101092.75;5034166;28;20053;-76
2021/09/30 09:28:08;;;;;;;19.58;8.30;;;;;;;9.84;54.21;101088.97;5047851;28;20513;-76
2021/09/30 09:30:38;;;;;;;22.92;7.38;;;;;;;9.93;54.36;101102.03;5032070;28;20063;-77
2021/09/30 09:33:10;;;;;;;17.77;6.05;;;;;;;9.90;54.42;101102.47;5035100;28;20417;-77
2021/09/30 09:35:56;;;;;;;13.00;5.32;;;;;;;9.86;54.75;101100.50;5033349;28;20088;-76
2021/09/30 09:38:24;;;;;;;13.18;5.15;;;;;;;9.92;54.49;101103.09;5050765;28;20111;-75
2021/09/30 09:40:56;;;;;;;11.35;4.50;;;;;;;9.90;54.63;101101.66;5045962;28;20048;-76
2021/09/30 09:43:29;;;;;;;13.18;5.00;;;;;;;9.89;54.79;101102.75;5032620;28;20583;-75
2021/09/30 09:45:56;;;;;;;15.38;5.15;;;;;;;9.90;54.50;101098.94;5031281;28;20048;-73
2021/09/30 09:48:22;;;;;;;11.73;5.07;;;;;;;9.89;54.97;101089.91;5040628;28;20080;-74
2021/09/30 09:50:51;;;;;;;14.80;6.28;;;;;;;9.89;54.90;101098.09;5042656;28;20048;-76
2021/09/30 09:53:18;;;;;;;12.70;5.97;;;;;;;9.88;55.09;101098.34;5053124;28;20095;-76
2021/09/30 09:55:44;;;;;;;15.23;6.87;;;;;;;9.93;54.88;101098.44;5033993;28;20053;-75
2021/09/30 09:58:11;;;;;;;16.13;6.43;;;;;;;9.89;55.17;101098.09;5033088;28;20328;-77
2021/09/30 10:00:40;;;;;;;13.43;6.63;;;;;;;9.91;55.22;101103.31;5018109;28;20103;-76
2021/09/30 10:03:15;;;;;;;16.50;6.20;;;;;;;9.94;55.30;101097.38;5026428;28;20050;-76
2021/09/30 10:05:42;;;;;;;13.27;5.70;;;;;;;9.88;55.11;101099.16;5022667;28;20068;-75
2021/09/30 10:08:09;;;;;;;17.13;5.35;;;;;;;9.89;55.29;101108.19;5029137;28;20165;-76
2021/09/30 10:10:35;;;;;;;;;;;;;;;9.85;55.36;101102.38;5044700;28;20068;-77
2021/09/30 10:13:02;;;;;;;13.25;5.35;;;;;;;9.74;55.09;101095.84;5049111;28;19925;-76
2021/09/30 10:15:32;;;;;;;11.55;5.38;;;;;;;9.78;55.46;101110.69;5043548;28;20048;-77
2021/09/30 10:18:01;;;;;;;10.95;5.13;;;;;;;9.77;55.42;101100.84;5012432;28;20076;-76
2021/09/30 10:20:27;;;;;;;12.98;4.72;;;;;;;9.81;55.22;101103.06;5051514;28;20052;-76
2021/09/30 10:22:54;;;;;;;11.82;5.20;;;;;;;9.82;55.20;101105.59;5034785;28;20045;-76
2021/09/30 10:25:21;;;;;;;10.77;5.20;;;;;;;9.68;55.36;101080.44;5020162;28;20054;-77
2021/09/30 10:27:56;;;;;;;13.38;5.82;;;;;;;9.79;55.33;101109.63;5031411;28;20041;-77
2021/09/30 10:30:32;;;;;;;12.70;5.50;;;;;;;9.70;55.40;101110.22;5031051;28;20394;-78
2021/09/30 10:33:00;;;;;;;11.73;5.53;;;;;;;9.69;55.53;101109.41;5030862;28;20033;-77
2021/09/30 10:35:31;;;;;;;13.27;6.00;;;;;;;9.66;55.69;101109.84;5033407;28;20049;-77
2021/09/30 10:38:16;;;;;;;12.75;5.47;;;;;;;9.65;55.62;101105.44;5032182;28;20037;-76
2021/09/30 10:41:06;;;;;;;14.25;5.70;;;;;;;9.68;55.64;101112.34;5029229;28;20111;-76
2021/09/30 10:43:35;;;;;;;15.88;5.43;;;;;;;9.67;55.63;101110.69;5022197;28;20042;-76
2021/09/30 10:46:01;;;;;;;15.20;5.75;;;;;;;9.69;55.72;101119.47;5020660;28;20067;-76
2021/09/30 10:48:41;;;;;;;13.33;5.67;;;;;;;9.71;55.78;101115.44;5046997;28;20053;-76
2021/09/30 10:51:09;;;;;;;14.77;5.28;;;;;;;9.70;55.63;101118.41;5020897;28;20152;-76
2021/09/30 10:53:59;;;;;;;10.98;5.25;;;;;;;9.69;55.54;101125.78;5040172;28;20050;-78
2021/09/30 10:56:39;;;;;;;14.77;5.75;;;;;;;9.65;55.51;101108.19;5018495;28;20056;-76
2021/09/30 10:59:39;;;;;;;14.98;5.57;;;;;;;9.71;55.36;101111.88;5030978;28;20049;-76
2021/09/30 11:02:05;;;;;;;17.30;6.03;;;;;;;9.74;55.25;101116.84;5034863;28;20049;-76
2021/09/30 11:05:03;;;;;;;11.73;5.22;;;;;;;9.71;55.35;101120.91;5050511;28;20107;-76
2021/09/30 11:07:32;;;;;;;13.60;5.90;;;;;;;9.72;55.32;101119.84;5051173;28;20049;-77
2021/09/30 11:10:16;;;;;;;12.30;5.85;;;;;;;9.69;55.35;101117.59;5033642;28;20506;-77
2021/09/30 11:13:17;;;;;;;18.17;5.50;;;;;;;9.71;55.33;101112.72;5030685;28;20042;-76
2021/09/30 11:16:05;;;;;;;11.52;5.40;;;;;;;9.72;55.39;101119.00;5041036;28;20050;-76
2021/09/30 11:18:41;;;;;;;15.60;5.97;;;;;;;9.68;55.38;101118.66;5038756;28;20102;-76
2021/09/30 11:21:40;;;;;;;17.80;5.68;;;;;;;9.69;55.54;101114.84;5038376;28;20077;-76
2021/09/30 11:24:09;;;;;;;17.38;6.05;;;;;;;9.59;55.61;101111.88;5028984;28;20474;-76
2021/09/30 11:27:22;;;;;;;14.98;6.10;;;;;;;9.55;55.66;101106.03;5015372;28;20053;-76
2021/09/30 11:29:49;;;;;;;25.02;10.55;;;;;;;9.65;55.65;101113.66;5008719;28;20045;-76
2021/09/30 11:32:24;;;;;;;17.27;8.75;;;;;;;9.69;55.81;101114.84;5027826;28;20049;-78
2021/09/30 11:34:52;;;;;;;20.58;8.25;;;;;;;9.71;55.57;101114.59;5018828;28;20195;-77
2021/09/30 11:37:20;;;;;;;18.67;7.35;;;;;;;9.69;55.70;101108.56;5032365;28;21010;-78
2021/09/30 11:39:51;;;;;;;14.95;6.95;;;;;;;9.69;55.82;101114.84;5044162;28;20056;-76
2021/09/30 11:42:19;;;;;;;20.95;7.22;;;;;;;9.71;56.08;101117.34;5034259;28;20053;-77
2021/09/30 11:44:58;;;;;;;17.23;6.50;;;;;;;9.63;56.11;101094.78;5030815;28;20073;-77
2021/09/30 11:47:26;;;;;;;15.70;6.72;;;;;;;9.66;56.22;101104.38;5038730;28;20049;-77
2021/09/30 11:49:52;;;;;;;23.38;6.68;;;;;;;9.69;56.11;101103.94;5051252;28;20541;-77
2021/09/30 11:52:18;;;;;;;18.60;6.40;;;;;;;9.74;56.09;101100.47;5039718;28;20045;-79
2021/09/30 11:54:44;;;;;;;16.30;6.55;;;;;;;9.78;56.06;101102.50;5032885;28;20227;-77
2021/09/30 11:57:22;;;;;;;15.77;6.53;;;;;;;9.76;56.20;101095.63;5015518;28;20112;-76
2021/09/30 11:59:48;;;;;;;17.90;7.30;;;;;;;9.82;55.90;101105.59;5044917;28;20052;-77
2021/09/30 12:02:14;;;;;;;20.02;6.25;;;;;;;9.83;55.66;101096.31;5031693;28;20041;-75
2021/09/30 12:04:44;;;;;;;17.48;6.35;;;;;;;9.89;55.48;101100.81;5035186;28;20037;-77
2021/09/30 12:07:18;;;;;;;14.63;6.55;;;;;;;9.84;55.14;101089.78;5036464;28;20037;-77
2021/09/30 12:09:45;;;;;;;13.45;6.30;;;;;;;9.82;55.46;101096.53;5035274;28;20053;-75
2021/09/30 12:12:11;;;;;;;17.77;6.93;;;;;;;9.85;55.15;101093.38;5035144;28;20051;-76
2021/09/30 12:14:43;;;;;;;17.15;6.40;;;;;;;9.86;54.95;101093.09;5001309;28;20509;-76
2021/09/30 12:17:12;;;;;;;15.77;6.63;;;;;;;9.87;54.77;101089.31;5035147;28;20136;-76
2021/09/30 12:19:40;;;;;;;16.23;6.18;;;;;;;9.87;54.73;101088.50;5033943;28;20140;-76
2021/09/30 12:22:08;;;;;;;14.20;5.90;;;;;;;9.90;54.57;101096.19;5035917;28;20493;-76
2021/09/30 12:24:35;;;;;;;18.20;6.10;;;;;;;9.90;54.64;101088.81;5017633;28;20046;-76
2021/09/30 12:27:06;;;;;;;15.07;5.50;;;;;;;9.92;54.57;101088.59;5034991;28;20064;-76
2021/09/30 12:29:38;;;;;;;17.63;6.40;;;;;;;9.90;54.39;101088.81;5038358;28;20068;-75
2021/09/30 12:32:09;;;;;;;13.68;6.07;;;;;;;9.85;54.46;101082.44;5016757;28;20099;-76
2021/09/30 12:34:35;;;;;;;14.57;6.07;;;;;;;9.79;54.50;101070.56;5033091;28;20498;-75
2021/09/30 12:37:01;;;;;;;17.90;6.82;;;;;;;9.91;54.30;101079.59;5034007;28;20140;-75
2021/09/30 12:39:29;;;;;;;20.63;6.20;;;;;;;9.92;54.33;101083.13;5035055;28;20088;-76
2021/09/30 12:42:12;;;;;;;19.13;6.63;;;;;;;9.94;54.46;101089.19;5035435;28;20484;-76
2021/09/30 12:44:43;;;;;;;20.77;6.97;;;;;;;9.89;54.43;101083.63;5035292;28;20053;-75
2021/09/30 12:47:28;;;;;;;17.65;6.20;;;;;;;9.88;54.61;101079.22;5033233;28;20049;-74
2021/09/30 12:50:01;;;;;;;15.40;6.43;;;;;;;9.87;54.62;101083.84;5025950;28;20053;-76
2021/09/30 12:52:28;;;;;;;15.32;6.43;;;;;;;9.83;54.77;101079.94;5020708;28;20131;-75
2021/09/30 12:54:54;;;;;;;15.27;7.22;;;;;;;9.76;54.80;101066.41;5021850;28;20533;-76
2021/09/30 12:57:21;;;;;;;15.25;6.97;;;;;;;9.78;54.86;101077.91;5034810;28;20468;-75
2021/09/30 13:00:09;;;;;;;15.23;6.50;;;;;;;9.74;54.80;101068.53;5031825;28;20135;-77
2021/09/30 13:02:40;;;;;;;17.92;7.05;;;;;;;9.75;54.80;101080.28;5015712;28;20076;-76
2021/09/30 13:05:07;;;;;;;16.83;6.88;;;;;;;9.70;54.74;101061.06;5033998;28;20041;-77
2021/09/30 13:07:44;;;;;;;24.98;7.43;;;;;;;9.74;54.72;101076.72;5017226;28;20080;-77
2021/09/30 13:10:12;;;;;;;16.27;6.78;;;;;;;9.66;54.56;101060.69;5016477;28;20140;-77
2021/09/30 13:12:38;;;;;;;14.90;5.88;;;;;;;9.69;54.83;101071.16;5016595;28;20548;-77
2021/09/30 13:15:05;;;;;;;18.20;6.60;;;;;;;9.71;54.88;101073.63;5034734;28;20148;-77
2021/09/30 13:17:31;;;;;;;12.95;6.00;;;;;;;9.75;54.86;101069.34;5016665;28;20056;-77
2021/09/30 13:20:00;;;;;;;15.40;5.40;;;;;;;9.43;54.74;101029.59;5034451;28;20540;-77
2021/09/30 13:22:29;;;;;;;14.93;5.45;;;;;;;9.70;54.73;101059.16;5042331;28;20045;-77
2021/09/30 13:24:57;;;;;;;13.98;5.60;;;;;;;9.73;54.89;101061.41;5019360;28;20224;-77
2021/09/30 13:27:27;;;;;;;14.50;5.70;;;;;;;9.75;55.06;101070.19;5034634;28;20045;-77
2021/09/30 13:29:54;;;;;;;13.07;5.88;;;;;;;9.69;55.09;101059.38;5036550;28;20193;-76
2021/09/30 13:32:23;;;;;;;15.55;5.82;;;;;;;9.75;54.98;101064.72;5037478;28;20111;-77
2021/09/30 13:34:49;;;;;;;14.57;5.70;;;;;;;9.77;55.00;101062.59;5034476;28;20462;-77
2021/09/30 13:37:16;;;;;;;13.88;7.07;;;;;;;9.73;55.12;101055.09;5049221;28;20040;-77
2021/09/30 13:39:42;;;;;;;;;;;;;;;9.72;55.13;101062.50;5029257;28;20053;-78
2021/09/30 13:42:10;;;;;;;14.77;6.68;;;;;;;9.73;55.10;101060.56;5037489;28;19931;-75
2021/09/30 13:44:36;;;;;;;18.50;6.70;;;;;;;9.74;55.09;101056.75;5047849;28;20464;-76
2021/09/30 13:47:05;;;;;;;17.73;7.35;;;;;;;9.75;55.13;101051.06;5021461;28;20085;-76
2021/09/30 13:49:31;;;;;;;16.70;6.85;;;;;;;9.78;55.03;101055.25;5033848;28;20049;-78
2021/09/30 13:51:57;;;;;;;12.52;6.15;;;;;;;9.76;55.05;101058.19;5037144;28;20052;-77
2021/09/30 13:54:31;;;;;;;19.48;6.60;;;;;;;9.81;54.93;101056.66;5056620;28;20037;-77
2021/09/30 13:56:57;;;;;;;16.70;6.78;;;;;;;9.71;54.83;101033.50;5043323;28;20151;-77
2021/09/30 13:59:23;;;;;;;20.25;7.20;;;;;;;9.81;54.82;101042.97;5028257;28;20481;-77
2021/09/30 14:01:49;;;;;;;16.52;7.57;;;;;;;9.83;54.55;101040.84;5037867;28;20155;-76
2021/09/30 14:04:15;;;;;;;17.25;7.13;;;;;;;9.85;54.63;101044.19;5029199;28;20068;-76
2021/09/30 14:06:41;;;;;;;14.95;6.20;;;;;;;9.84;54.60;101037.06;5033701;28;20057;-77
2021/09/30 14:09:07;;;;;;;16.15;6.43;;;;;;;9.82;54.61;101044.66;5015720;28;20038;-76
2021/09/30 14:11:35;;;;;;;19.70;6.38;;;;;;;9.80;54.82;101039.44;5017780;28;20073;-77
2021/09/30 14:14:01;;;;;;;16.30;7.35;;;;;;;9.79;54.61;101043.25;5003804;28;20045;-77
2021/09/30 14:16:27;;;;;;;16.50;7.35;;;;;;;9.82;54.65;101040.03;5015083;28;20386;-78
2021/09/30 14:18:53;;;;;;;15.68;6.78;;;;;;;9.76;54.70;101024.59;5032631;28;20056;-77
2021/09/30 14:21:19;;;;;;;19.65;7.45;;;;;;;9.79;54.57;101035.06;5031983;28;20529;-77
2021/09/30 14:23:46;;;;;;;15.27;6.85;;;;;;;9.84;54.62;101039.81;5031831;28;20107;-79
2021/09/30 14:26:12;;;;;;;17.88;6.90;;;;;;;9.83;54.79;101028.03;5035181;28;20048;-77
2021/09/30 14:28:39;;;;;;;15.48;6.88;;;;;;;9.78;54.55;101033.38;5015060;28;20033;-79
2021/09/30 14:31:06;;;;;;;17.75;7.32;;;;;;;9.68;54.70;101024.97;5031268;28;20052;-76
2021/09/30 14:33:32;;;;;;;21.08;8.70;;;;;;;9.64;54.62;101027.31;5031069;28;20049;-77
2021/09/30 14:35:59;;;;;;;17.13;8.13;;;;;;;9.57;54.64;101023.91;5031129;28;20045;-77
2021/09/30 14:38:25;;;;;;;15.35;7.75;;;;;;;9.57;54.67;101007.53;5031265;28;20053;-77
2021/09/30 14:40:53;;;;;;;17.70;7.05;;;;;;;9.59;54.63;101019.03;5017187;28;20053;-75
2021/09/30 14:43:20;;;;;;;;;;;;;;;9.64;54.61;101024.59;5013906;28;20505;-75
2021/09/30 14:45:48;;;;;;;15.95;7.75;;;;;;;9.59;55.03;101016.31;5011931;28;19931;-75
2021/09/30 14:48:14;;;;;;;19.88;7.30;;;;;;;9.60;55.00;101018.81;5030700;28;20407;-75
2021/09/30 14:50:40;;;;;;;19.80;7.05;;;;;;;9.57;55.16;101019.25;5031254;28;20045;-75